Time;durP1;ratioP1;P1;durP2;ratioP2;P2;SDS_P1;SDS_P2;PMS_P1;PMS_P2;Temp;Humidity;BMP_temperature;BMP_pressure;BME280_temperature;BME280_humidity;BME280_pressure;Samples;Min_cycle;Max_cycle;Signal;HPM_P1;HPM_P2
2022/10/11 00:03:40;;;;;;;20.35;10.57;;;;;;;11.71;88.91;99571.84;8508330;27;20062;-81
2022/10/11 00:07:41;;;;;;;19.58;10.43;;;;;;;11.65;89.30;99573.88;8510140;27;20129;-82
2022/10/11 00:11:42;;;;;;;21.55;10.75;;;;;;;11.61;89.33;99577.50;8510216;27;20196;-82
2022/10/11 00:15:43;;;;;;;21.23;10.85;;;;;;;11.56;89.49;99574.91;8493450;27;20047;-82
2022/10/11 00:19:44;;;;;;;19.92;10.40;;;;;;;11.50;89.64;99581.53;8504177;27;20073;-83
2022/10/11 00:23:45;;;;;;;22.20;11.15;;;;;;;11.42;89.92;99586.53;8505049;27;20043;-82
2022/10/11 00:27:46;;;;;;;22.75;9.90;;;;;;;11.37;89.82;99593.94;8509820;27;20042;-83
2022/10/11 00:31:47;;;;;;;19.20;10.30;;;;;;;11.28;90.12;99596.56;8507529;27;20043;-84
2022/10/11 00:35:48;;;;;;;20.10;10.05;;;;;;;11.18;90.32;99599.47;8501832;27;20047;-84
2022/10/11 00:39:49;;;;;;;25.17;10.68;;;;;;;11.10;90.39;99604.78;8502416;27;20126;-84
2022/10/11 00:44:16;;;;;;;20.83;11.32;;;;;;;11.01;90.95;99601.97;8515677;27;20032;-84
2022/10/11 00:48:21;;;;;;;24.83;11.15;;;;;;;10.94;91.00;99613.16;8508430;27;20121;-83
2022/10/11 00:52:37;;;;;;;24.42;11.55;;;;;;;10.85;91.20;99606.03;8503219;27;20115;-83
2022/10/11 00:56:39;;;;;;;25.73;13.63;;;;;;;10.73;91.27;99603.84;8489769;27;20812;-82
2022/10/11 01:00:40;;;;;;;31.73;14.45;;;;;;;10.64;91.54;99607.50;8500465;27;20050;-82
2022/10/11 01:04:41;;;;;;;29.90;14.43;;;;;;;10.54;91.53;99598.47;8503576;27;20058;-82
2022/10/11 01:08:43;;;;;;;34.42;14.93;;;;;;;10.48;91.98;99609.66;8504937;27;20560;-82
2022/10/11 01:13:07;;;;;;;29.10;14.70;;;;;;;10.48;92.13;99610.47;8488162;27;20047;-83
2022/10/11 01:17:08;;;;;;;24.13;13.10;;;;;;;10.43;92.27;99607.84;8354814;28;20053;-83
2022/10/11 01:21:15;;;;;;;22.02;12.13;;;;;;;10.45;92.38;99621.06;8352374;28;20072;-83
2022/10/11 01:25:45;;;;;;;20.60;11.60;;;;;;;10.45;92.40;99613.75;8349298;28;20042;-83
2022/10/11 01:30:03;;;;;;;23.08;11.95;;;;;;;10.50;92.40;99613.69;8153300;29;20567;-83
2022/10/11 01:34:26;;;;;;;28.95;12.50;;;;;;;10.49;92.52;99612.06;8178955;28;20063;-83
2022/10/11 01:38:35;;;;;;;25.02;12.95;;;;;;;10.46;92.36;99618.06;8185321;28;20754;-82
2022/10/11 01:42:38;;;;;;;22.35;11.85;;;;;;;10.43;92.73;99618.66;8187816;28;20054;-81
2022/10/11 01:46:39;;;;;;;24.05;11.35;;;;;;;10.40;92.73;99624.66;8179741;28;20059;-82
2022/10/11 01:50:43;;;;;;;22.85;11.50;;;;;;;10.39;93.21;99636.53;8193583;28;20087;-82
2022/10/11 01:54:50;;;;;;;20.90;10.50;;;;;;;10.29;92.91;99633.19;8283508;28;20132;-81
2022/10/11 01:59:18;;;;;;;23.88;11.32;;;;;;;10.16;93.40;99640.13;8318699;28;20050;-81
2022/10/11 02:03:32;;;;;;;29.45;11.10;;;;;;;10.06;93.60;99640.25;8317818;28;20447;-81
2022/10/11 02:07:48;;;;;;;21.23;10.35;;;;;;;9.92;93.83;99639.38;8483260;27;20051;-81
2022/10/11 02:11:51;;;;;;;20.70;10.15;;;;;;;9.81;94.13;99643.31;8486031;27;20422;-82
2022/10/11 02:15:54;;;;;;;26.67;11.25;;;;;;;9.68;94.14;99656.41;8393473;28;20046;-81
2022/10/11 02:19:58;;;;;;;19.42;10.65;;;;;;;9.58;94.65;99651.13;8354776;28;20478;-81
2022/10/11 02:24:23;;;;;;;21.17;10.27;;;;;;;9.56;94.47;99653.34;8320546;28;20056;-81
2022/10/11 02:28:29;;;;;;;26.27;9.95;;;;;;;9.54;94.62;99666.28;8294220;28;20315;-81
2022/10/11 02:32:31;;;;;;;20.33;10.18;;;;;;;9.49;94.53;99674.44;8303992;28;20485;-81
2022/10/11 02:37:07;;;;;;;20.63;9.80;;;;;;;9.51;94.76;99671.47;8297054;28;20070;-82
2022/10/11 02:41:20;;;;;;;27.85;9.30;;;;;;;9.56;95.01;99674.91;8281200;28;20050;-81
2022/10/11 02:45:36;;;;;;;22.00;9.02;;;;;;;9.61;94.86;99682.94;8300292;28;20056;-82
2022/10/11 02:49:37;;;;;;;20.20;9.80;;;;;;;9.69;94.94;99684.97;8312636;28;20049;-82
2022/10/11 02:53:38;;;;;;;28.98;9.65;;;;;;;9.81;94.98;99686.47;8393932;28;20059;-81
2022/10/11 02:57:39;;;;;;;17.98;9.50;;;;;;;9.88;95.00;99692.31;8419794;28;20101;-81
2022/10/11 03:01:40;;;;;;;23.83;10.82;;;;;;;9.91;95.46;99697.13;8417227;28;20501;-80
2022/10/11 03:05:42;;;;;;;16.70;8.90;;;;;;;9.93;95.44;99701.16;8431410;27;20047;-81
2022/10/11 03:09:43;;;;;;;17.15;9.30;;;;;;;9.93;95.37;99705.75;8507723;27;20522;-81
2022/10/11 03:13:44;;;;;;;18.15;8.93;;;;;;;9.91;95.67;99710.63;8502348;27;20047;-81
2022/10/11 03:17:45;;;;;;;17.90;8.70;;;;;;;9.87;95.86;99712.28;8502413;27;20061;-81
2022/10/11 03:21:46;;;;;;;18.60;8.93;;;;;;;9.82;95.88;99720.44;8504766;27;20043;-81
2022/10/11 03:25:47;;;;;;;18.15;8.43;;;;;;;9.74;96.42;99725.38;8455021;27;20171;-91
2022/10/11 03:29:48;;;;;;;15.32;8.30;;;;;;;9.67;96.49;99724.94;8499205;27;20480;-81
2022/10/11 03:33:49;;;;;;;21.23;9.55;;;;;;;9.63;96.67;99734.66;8500607;27;20047;-80
2022/10/11 03:37:50;;;;;;;28.67;8.95;;;;;;;9.65;97.09;99737.91;8510361;27;20607;-80
2022/10/11 03:41:51;;;;;;;19.60;8.10;;;;;;;9.66;97.17;99750.28;8519031;27;20062;-80
2022/10/11 03:45:52;;;;;;;20.48;8.45;;;;;;;9.64;96.62;99757.06;8531350;27;20055;-81
2022/10/11 03:49:53;;;;;;;17.30;8.63;;;;;;;9.59;97.08;99755.22;8522122;27;20058;-81
2022/10/11 03:53:54;;;;;;;16.73;8.38;;;;;;;9.58;97.25;99763.59;8501892;27;20061;-80
2022/10/11 03:57:55;;;;;;;17.63;10.13;;;;;;;9.57;97.68;99773.56;8501143;27;20051;-80
2022/10/11 04:01:56;;;;;;;21.35;10.82;;;;;;;9.65;98.64;99781.03;8511069;27;20035;-81
2022/10/11 04:05:57;;;;;;;21.88;10.00;;;;;;;9.72;98.37;99792.31;8506277;27;20046;-82
2022/10/11 04:09:59;;;;;;;25.83;9.43;;;;;;;9.75;98.11;99791.72;8509544;27;20480;-81
2022/10/11 04:13:59;;;;;;;28.52;11.25;;;;;;;9.80;98.05;99803.53;8499341;27;20066;-81
2022/10/11 04:18:01;;;;;;;22.67;9.73;;;;;;;9.86;98.20;99802.41;8499598;27;20400;-81
2022/10/11 04:22:03;;;;;;;22.35;9.65;;;;;;;9.94;98.38;99804.47;8499375;27;20058;-79
2022/10/11 04:26:05;;;;;;;25.00;10.38;;;;;;;10.01;98.39;99804.91;8509197;27;20049;-81
2022/10/11 04:30:07;;;;;;;22.10;10.43;;;;;;;10.07;98.35;99803.78;8510162;27;20134;-80
2022/10/11 04:34:08;;;;;;;26.67;10.20;;;;;;;10.14;98.68;99809.63;8499184;27;20055;-81
2022/10/11 04:38:09;;;;;;;26.50;10.32;;;;;;;10.15;98.75;99813.94;8511860;27;20051;-81
2022/10/11 04:42:10;;;;;;;20.55;9.85;;;;;;;10.11;99.20;99811.00;8522824;27;20046;-82
2022/10/11 04:46:11;;;;;;;18.83;9.73;;;;;;;10.10;99.67;99808.59;8517612;27;20043;-81
2022/10/11 04:50:12;;;;;;;22.85;9.63;;;;;;;10.05;99.58;99827.53;8524698;27;20098;-81
2022/10/11 04:54:13;;;;;;;22.27;9.43;;;;;;;9.98;99.86;99827.09;8495591;27;20055;-81
2022/10/11 04:58:14;;;;;;;32.65;9.70;;;;;;;9.91;100.00;99842.81;8496394;27;20100;-81
2022/10/11 05:02:15;;;;;;;24.23;10.20;;;;;;;9.87;100.00;99841.78;8525879;27;20488;-81
2022/10/11 05:06:16;;;;;;;18.92;9.48;;;;;;;9.81;100.00;99842.91;8496705;27;20047;-81
2022/10/11 05:10:17;;;;;;;21.50;9.80;;;;;;;9.83;100.00;99851.53;8474359;27;20559;-81
2022/10/11 05:14:18;;;;;;;21.30;9.35;;;;;;;9.89;100.00;99861.16;8477080;27;20050;-81
2022/10/11 05:18:20;;;;;;;23.42;8.82;;;;;;;9.95;100.00;99868.13;8435684;27;20082;-81
2022/10/11 05:22:21;;;;;;;23.02;9.13;;;;;;;9.99;100.00;99866.50;8511114;27;20043;-81
2022/10/11 05:26:23;;;;;;;20.23;9.02;;;;;;;10.05;100.00;99881.50;8496485;27;20072;-81
2022/10/11 05:30:24;;;;;;;20.38;9.20;;;;;;;10.08;100.00;99880.94;8522562;27;20449;-81
2022/10/11 05:34:25;;;;;;;19.77;9.23;;;;;;;10.12;100.00;99887.38;8513320;27;20054;-80
2022/10/11 05:38:26;;;;;;;20.98;8.93;;;;;;;10.13;100.00;99899.78;8503785;27;20487;-82
2022/10/11 05:42:27;;;;;;;17.48;8.80;;;;;;;10.14;100.00;99906.81;8502902;27;20085;-81
2022/10/11 05:46:28;;;;;;;22.25;8.77;;;;;;;10.15;100.00;99908.41;8510116;27;20047;-80
2022/10/11 05:50:29;;;;;;;21.77;8.20;;;;;;;10.22;100.00;99914.28;8446219;27;20047;-83
2022/10/11 05:54:31;;;;;;;16.48;8.10;;;;;;;10.24;100.00;99933.72;8423026;27;20403;-81
2022/10/11 05:58:32;;;;;;;18.27;8.02;;;;;;;10.28;100.00;99940.16;8524185;27;20039;-80
2022/10/11 06:02:33;;;;;;;16.52;7.03;;;;;;;10.22;100.00;99946.69;8495370;27;20177;-81
2022/10/11 06:06:34;;;;;;;14.95;6.70;;;;;;;10.13;100.00;99951.06;8509515;27;20496;-82
2022/10/11 06:10:37;;;;;;;17.02;6.38;;;;;;;10.04;99.94;99958.19;8494171;27;20484;-81
2022/10/11 06:14:38;;;;;;;17.10;6.28;;;;;;;10.01;100.00;99961.44;8502013;27;20046;-81
2022/10/11 06:18:41;;;;;;;19.80;6.38;;;;;;;10.12;99.92;99979.16;8528159;27;20054;-81
2022/10/11 06:22:42;;;;;;;16.02;5.65;;;;;;;10.20;98.97;99981.28;8499104;27;20053;-81
2022/10/11 06:26:43;;;;;;;17.65;6.20;;;;;;;10.26;98.54;99995.53;8514327;27;20038;-81
2022/10/11 06:30:43;;;;;;;23.55;6.57;;;;;;;10.26;98.48;99993.59;8514302;27;20054;-81
2022/10/11 06:34:44;;;;;;;21.60;7.13;;;;;;;10.25;98.29;100000.13;8458081;27;20063;-81
2022/10/11 06:38:45;;;;;;;19.25;5.30;;;;;;;10.20;98.34;100013.66;8504934;27;20505;-82
2022/10/11 06:42:48;;;;;;;16.00;5.82;;;;;;;10.14;98.02;100022.88;8475853;27;20544;-81
2022/10/11 06:46:49;;;;;;;18.27;5.82;;;;;;;10.06;98.12;100023.47;8507328;27;20055;-82
2022/10/11 06:50:50;;;;;;;17.52;5.38;;;;;;;10.06;98.15;100045.03;8512623;27;20035;-81
2022/10/11 06:54:54;;;;;;;14.77;6.10;;;;;;;10.16;97.84;100050.38;8493901;27;20077;-81
2022/10/11 06:58:56;;;;;;;17.27;5.38;;;;;;;10.36;97.24;100044.03;8512423;27;20410;-81
2022/10/11 07:02:57;;;;;;;20.58;5.55;;;;;;;10.43;96.78;100050.69;8504019;27;20092;-81
2022/10/11 07:06:58;;;;;;;20.52;5.75;;;;;;;10.41;96.12;100063.69;8508424;27;20043;-81
2022/10/11 07:11:06;;;;;;;20.45;6.35;;;;;;;10.46;96.19;100066.34;8508362;27;20067;-81
2022/10/11 07:15:09;;;;;;;13.85;4.70;;;;;;;10.55;95.70;100075.44;8440354;28;20050;-81
2022/10/11 07:19:10;;;;;;;17.30;4.72;;;;;;;10.59;95.31;100081.06;8447787;28;20180;-81
2022/10/11 07:23:11;;;;;;;15.23;5.05;;;;;;;10.71;94.95;100083.38;8444938;28;20044;-82
2022/10/11 07:27:12;;;;;;;22.83;5.07;;;;;;;10.82;94.11;100090.28;8434650;28;20052;-81
2022/10/11 07:31:19;;;;;;;18.20;4.78;;;;;;;10.85;93.57;100100.53;8377716;28;20036;-81
2022/10/11 07:35:20;;;;;;;14.05;4.32;;;;;;;10.82;93.22;100101.09;8442247;28;20064;-81
2022/10/11 07:39:21;;;;;;;20.13;4.10;;;;;;;10.86;92.60;100102.13;8477655;27;20876;-81
2022/10/11 07:43:22;;;;;;;11.65;3.90;;;;;;;10.99;92.05;100117.69;8499649;27;20035;-81
2022/10/11 07:47:23;;;;;;;14.38;4.10;;;;;;;10.96;91.21;100123.66;8499816;27;20549;-83
2022/10/11 07:51:24;;;;;;;17.63;4.00;;;;;;;10.96;90.94;100123.66;8517939;27;20043;-81
2022/10/11 07:55:30;;;;;;;23.33;4.43;;;;;;;11.05;90.59;100132.72;8498572;27;20126;-82
2022/10/11 07:59:31;;;;;;;20.48;4.05;;;;;;;11.19;89.71;100133.69;8495122;27;20047;-82
2022/10/11 08:03:32;;;;;;;15.40;3.22;;;;;;;11.36;88.92;100134.03;8513039;27;20114;-81
2022/10/11 08:07:33;;;;;;;11.55;3.00;;;;;;;11.51;88.81;100140.34;8498363;27;20054;-81
2022/10/11 08:11:38;;;;;;;14.52;3.70;;;;;;;11.55;88.14;100157.59;8512541;27;20051;-83
2022/10/11 08:15:39;;;;;;;17.55;3.20;;;;;;;11.56;87.50;100165.44;8512457;27;20070;-84
2022/10/11 08:19:40;;;;;;;9.35;2.70;;;;;;;11.55;86.39;100157.59;8512816;27;20031;-81
2022/10/11 08:23:41;;;;;;;13.48;3.03;;;;;;;11.61;85.80;100156.44;8512602;27;20047;-80
2022/10/11 08:27:45;;;;;;;17.23;2.92;;;;;;;11.44;85.91;100146.91;8445420;27;20051;-81
2022/10/11 08:31:46;;;;;;;10.15;2.70;;;;;;;11.62;85.78;100155.34;8523118;27;20145;-83
2022/10/11 08:35:47;;;;;;;22.00;3.00;;;;;;;11.91;84.95;100155.25;8511861;27;20129;-81
2022/10/11 08:39:48;;;;;;;19.90;3.78;;;;;;;11.92;84.12;100162.28;8512699;27;20069;-81
2022/10/11 08:44:21;;;;;;;15.18;3.47;;;;;;;11.87;83.93;100160.47;8497608;27;20039;-80
2022/10/11 08:48:31;;;;;;;18.20;3.25;;;;;;;11.87;83.69;100160.47;8502707;27;20039;-81
2022/10/11 08:52:45;;;;;;;14.50;2.80;;;;;;;12.04;83.21;100165.38;8513840;27;20098;-80
2022/10/11 08:56:46;;;;;;;16.13;2.92;;;;;;;11.97;81.86;100170.34;8502941;27;20043;-81
2022/10/11 09:00:54;;;;;;;14.07;2.58;;;;;;;11.98;82.24;100172.75;8443912;27;20043;-80
2022/10/11 09:04:55;;;;;;;13.23;2.65;;;;;;;12.14;81.39;100176.88;8491029;27;20073;-81
2022/10/11 09:09:02;;;;;;;12.55;2.80;;;;;;;12.44;80.16;100174.78;8514498;27;20057;-81
2022/10/11 09:13:30;;;;;;;15.48;3.13;;;;;;;12.77;79.13;100168.28;8505303;27;20066;-81
2022/10/11 09:17:50;;;;;;;18.42;3.13;;;;;;;12.67;78.44;100179.28;8498601;27;20108;-82
2022/10/11 09:22:12;;;;;;;12.68;2.40;;;;;;;12.47;78.68;100179.63;8496603;27;20487;-80
2022/10/11 09:26:47;;;;;;;15.18;2.65;;;;;;;12.35;78.30;100176.56;8482724;27;20103;-80
2022/10/11 09:30:51;;;;;;;11.68;2.35;;;;;;;12.37;78.90;100179.78;8497052;27;20434;-81
2022/10/11 09:34:59;;;;;;;17.25;2.47;;;;;;;12.35;79.27;100179.25;8498335;27;20046;-81
2022/10/11 09:39:23;;;;;;;10.75;2.33;;;;;;;12.46;77.72;100188.84;8496789;27;20066;-81
2022/10/11 09:43:24;;;;;;;16.15;2.20;;;;;;;12.72;76.77;100181.13;8495799;27;20039;-80
2022/10/11 09:47:27;;;;;;;18.83;2.20;;;;;;;12.97;74.80;100177.97;8495843;27;20410;-83
2022/10/11 09:51:28;;;;;;;14.27;2.05;;;;;;;13.11;73.23;100179.63;8510018;27;20043;-82
2022/10/11 09:55:39;;;;;;;10.10;2.05;;;;;;;13.35;71.73;100173.22;8495361;27;20041;-83
2022/10/11 09:59:42;;;;;;;12.68;1.77;;;;;;;13.44;70.89;100176.84;8515461;27;20056;-83
2022/10/11 10:03:44;;;;;;;11.93;1.85;;;;;;;13.49;70.18;100184.88;8496117;27;20055;-83
2022/10/11 10:08:06;;;;;;;8.88;2.22;;;;;;;13.57;69.19;100186.09;8503493;27;20560;-81
2022/10/11 10:12:12;;;;;;;10.45;1.35;;;;;;;13.62;68.94;100183.28;8471724;27;20441;-84
2022/10/11 10:16:32;;;;;;;12.50;1.83;;;;;;;13.66;68.11;100185.06;8468165;27;20112;-84
2022/10/11 10:20:33;;;;;;;;;;;;;;;13.45;67.74;100178.44;8490836;27;20126;-82
2022/10/11 10:24:39;;;;;;;9.70;1.80;;;;;;;13.69;67.79;100184.50;8499980;27;20459;-81
2022/10/11 10:28:56;;;;;;;15.55;2.17;;;;;;;13.67;66.80;100186.69;8502365;27;20142;-81
2022/10/11 10:33:02;;;;;;;14.02;1.75;;;;;;;13.91;66.31;100187.25;8493578;27;20061;-82
2022/10/11 10:37:43;;;;;;;10.77;1.73;;;;;;;14.05;65.06;100189.16;8412329;28;20101;-85
2022/10/11 10:41:44;;;;;;;9.70;2.08;;;;;;;14.26;65.11;100187.59;8299365;28;20049;-82
2022/10/11 10:46:12;;;;;;;14.23;1.88;;;;;;;13.98;64.38;100196.91;8301032;28;20135;-81
2022/10/11 10:50:20;;;;;;;10.77;1.37;;;;;;;14.20;64.69;100195.06;8319291;28;20045;-82
2022/10/11 10:54:35;;;;;;;13.40;1.83;;;;;;;14.37;63.97;100202.59;8295307;28;20111;-81
2022/10/11 10:58:53;;;;;;;6.65;1.58;;;;;;;14.38;63.26;100190.63;8289123;28;20057;-83
2022/10/11 11:02:56;;;;;;;15.32;1.70;;;;;;;14.29;63.56;100197.84;8279685;28;20068;-82
2022/10/11 11:07:50;;;;;;;9.35;1.65;;;;;;;13.86;64.46;100200.13;8289463;28;20485;-82
2022/10/11 11:12:20;;;;;;;11.57;1.83;;;;;;;13.79;65.45;100200.56;8256882;28;20594;-82
2022/10/11 11:16:30;;;;;;;9.75;1.60;;;;;;;14.03;64.17;100194.06;8306355;28;20049;-81
2022/10/11 11:20:33;;;;;;;8.07;1.40;;;;;;;14.04;63.21;100195.69;8305898;28;20053;-82
2022/10/11 11:25:00;;;;;;;8.77;1.75;;;;;;;13.72;63.08;100205.59;8277823;28;20041;-81
2022/10/11 11:29:16;;;;;;;8.23;1.63;;;;;;;13.44;64.26;100198.53;8256720;28;20061;-81
2022/10/11 11:33:47;;;;;;;9.48;1.65;;;;;;;13.40;64.71;100192.13;8256672;28;20500;-82
2022/10/11 11:37:53;;;;;;;8.13;1.60;;;;;;;13.48;64.49;100197.63;8240550;28;20462;-81
2022/10/11 11:41:58;;;;;;;12.48;1.80;;;;;;;13.72;64.24;100194.72;8253855;28;20492;-82
2022/10/11 11:46:23;;;;;;;7.32;1.50;;;;;;;14.06;62.54;100198.91;8239888;28;20128;-82
2022/10/11 11:50:25;;;;;;;6.40;1.60;;;;;;;14.27;61.27;100190.00;8288563;28;20037;-84
2022/10/11 11:54:35;;;;;;;15.40;2.58;;;;;;;14.51;60.82;100200.63;8321548;28;20434;-82
2022/10/11 11:58:57;;;;;;;10.15;1.63;;;;;;;14.75;59.78;100190.22;8304668;28;20045;-84
2022/10/11 12:03:03;;;;;;;7.20;1.40;;;;;;;14.90;59.44;100196.41;8308927;28;20049;-81
2022/10/11 12:07:16;;;;;;;9.90;1.40;;;;;;;14.92;58.74;100199.59;8498989;27;20054;-81
2022/10/11 12:11:36;;;;;;;9.45;2.05;;;;;;;15.02;58.60;100193.91;8494835;27;20483;-85
2022/10/11 12:15:38;;;;;;;9.70;1.58;;;;;;;14.86;56.92;100200.88;8512669;27;20059;-85
2022/10/11 12:19:57;;;;;;;6.72;1.60;;;;;;;14.71;56.49;100205.56;8498352;27;20381;-82
2022/10/11 12:24:28;;;;;;;9.95;1.67;;;;;;;14.74;56.45;100194.09;8498435;27;20051;-82
2022/10/11 12:28:35;;;;;;;5.82;1.33;;;;;;;14.69;55.79;100194.22;8498212;27;20131;-80
2022/10/11 12:32:37;;;;;;;9.65;1.55;;;;;;;14.57;56.80;100201.31;8514164;27;20487;-81
2022/10/11 12:36:43;;;;;;;11.95;2.10;;;;;;;14.38;59.54;100201.47;8510937;27;20039;-81
2022/10/11 12:40:46;;;;;;;10.90;1.75;;;;;;;14.32;59.74;100202.69;8445070;27;20047;-80
2022/10/11 12:45:12;;;;;;;6.95;1.40;;;;;;;14.33;58.66;100198.81;8526729;27;20162;-82
2022/10/11 12:49:20;;;;;;;9.68;1.23;;;;;;;14.44;58.02;100189.34;8505970;27;20380;-82
2022/10/11 12:53:21;;;;;;;;;;;;;;;14.46;56.72;100191.78;8499275;27;20122;-82
2022/10/11 12:57:47;;;;;;;8.27;1.80;;;;;;;14.52;57.05;100202.22;8526174;27;19919;-81
2022/10/11 13:01:53;;;;;;;9.93;1.80;;;;;;;15.46;54.29;100191.09;8493592;27;20083;-81
2022/10/11 13:05:56;;;;;;;8.27;1.48;;;;;;;16.17;54.33;100202.69;8497170;27;20047;-82
2022/10/11 13:09:57;;;;;;;7.78;1.45;;;;;;;17.21;51.54;100187.81;8478737;27;20043;-83
2022/10/11 13:14:05;;;;;;;9.32;1.30;;;;;;;17.14;49.70;100195.72;8512140;27;20051;-82
2022/10/11 13:18:11;;;;;;;12.35;1.48;;;;;;;17.08;49.64;100188.81;8508214;27;20051;-84
2022/10/11 13:22:19;;;;;;;7.63;1.85;;;;;;;17.01;48.53;100199.44;8492501;27;20414;-82
2022/10/11 13:26:20;;;;;;;8.88;1.55;;;;;;;16.46;48.65;100197.38;8497085;27;20491;-84
2022/10/11 13:30:27;;;;;;;4.45;1.35;;;;;;;16.25;49.44;100193.69;8511844;27;20047;-84
2022/10/11 13:34:28;;;;;;;10.35;1.75;;;;;;;16.28;50.88;100203.97;8473355;27;20045;-83
2022/10/11 13:38:31;;;;;;;10.57;1.40;;;;;;;16.25;50.35;100193.69;8495232;27;20403;-82
2022/10/11 13:42:32;;;;;;;9.18;1.38;;;;;;;16.18;50.99;100193.34;8495430;27;20138;-80
2022/10/11 13:46:36;;;;;;;8.75;1.40;;;;;;;15.87;51.52;100192.69;8495826;27;20035;-82
2022/10/11 13:50:38;;;;;;;8.30;1.88;;;;;;;15.63;52.38;100193.91;8491236;27;20046;-82
2022/10/11 13:55:08;;;;;;;8.98;1.13;;;;;;;15.44;53.49;100196.03;8495283;27;20459;-80
2022/10/11 13:59:21;;;;;;;7.85;1.50;;;;;;;15.18;54.44;100203.28;8370453;28;20055;-81
2022/10/11 14:03:35;;;;;;;11.52;1.92;;;;;;;14.96;54.73;100189.75;8368995;28;20110;-81
2022/10/11 14:07:37;;;;;;;11.32;1.52;;;;;;;14.90;55.13;100197.22;8384346;28;20048;-80
2022/10/11 14:11:39;;;;;;;11.38;1.92;;;;;;;14.72;55.14;100190.84;8370398;28;20538;-80
2022/10/11 14:15:39;;;;;;;7.95;1.55;;;;;;;14.56;54.71;100192.34;8356158;28;20057;-82
2022/10/11 14:19:43;;;;;;;5.75;1.48;;;;;;;14.49;55.31;100197.38;8361036;28;20051;-81
2022/10/11 14:23:45;;;;;;;9.48;1.70;;;;;;;14.27;55.94;100194.63;8375403;28;20106;-81
2022/10/11 14:27:47;;;;;;;8.82;1.67;;;;;;;14.21;57.11;100195.84;8374408;28;20040;-81
2022/10/11 14:31:48;;;;;;;8.02;2.28;;;;;;;14.06;58.26;100198.91;8371886;28;20044;-81
2022/10/11 14:35:49;;;;;;;17.50;2.28;;;;;;;13.98;60.12;100196.91;8469063;27;20047;-81
2022/10/11 14:39:51;;;;;;;11.82;1.98;;;;;;;13.87;61.22;100202.56;8500621;27;20119;-80
2022/10/11 14:43:55;;;;;;;10.70;3.00;;;;;;;13.79;61.11;100199.75;8527556;27;20042;-80
2022/10/11 14:47:56;;;;;;;11.80;2.10;;;;;;;13.62;61.62;100205.78;8498780;27;20115;-81
2022/10/11 14:51:57;;;;;;;17.13;1.95;;;;;;;13.44;63.20;100204.78;8510743;27;20133;-80
2022/10/11 14:55:58;;;;;;;15.23;1.50;;;;;;;13.32;64.27;100206.41;8495336;27;20039;-80
2022/10/11 14:59:59;;;;;;;10.57;1.70;;;;;;;13.19;64.90;100212.59;8481586;27;20054;-80
2022/10/11 15:04:00;;;;;;;11.35;1.40;;;;;;;13.03;66.00;100204.69;8522947;27;20041;-81
2022/10/11 15:08:04;;;;;;;10.57;1.63;;;;;;;12.93;66.60;100204.88;8494614;27;20047;-81
2022/10/11 15:12:05;;;;;;;14.27;2.10;;;;;;;12.74;66.71;100206.03;8493393;27;20149;-81
2022/10/11 15:16:07;;;;;;;8.65;1.65;;;;;;;12.63;67.30;100211.63;8497569;27;20039;-81
2022/10/11 15:20:19;;;;;;;9.43;1.30;;;;;;;12.50;67.86;100216.97;8492285;27;20518;-81
2022/10/11 15:24:20;;;;;;;7.78;1.73;;;;;;;12.37;67.95;100212.28;8515551;27;20581;-81
2022/10/11 15:28:26;;;;;;;13.00;2.22;;;;;;;12.20;68.78;100212.81;8497435;27;20046;-81
2022/10/11 15:32:27;;;;;;;16.17;3.17;;;;;;;12.04;69.30;100209.50;8434768;28;20055;-80
2022/10/11 15:36:28;;;;;;;11.43;2.10;;;;;;;11.87;70.18;100208.38;8440504;28;20058;-80
2022/10/11 15:40:34;;;;;;;14.25;1.90;;;;;;;11.70;71.06;100219.63;8446461;28;20077;-80
2022/10/11 15:44:35;;;;;;;7.88;1.58;;;;;;;11.58;71.36;100213.84;8442663;28;20091;-81
2022/10/11 15:48:37;;;;;;;8.13;1.80;;;;;;;11.39;72.47;100214.56;8444814;28;20512;-80
2022/10/11 15:52:38;;;;;;;10.57;1.92;;;;;;;11.24;73.70;100217.44;8437869;28;20135;-81
2022/10/11 15:56:40;;;;;;;15.32;2.45;;;;;;;11.06;74.58;100218.16;8430033;28;20513;-81
2022/10/11 16:00:42;;;;;;;12.95;1.70;;;;;;;10.93;75.39;100226.94;8425508;28;20101;-81
2022/10/11 16:04:43;;;;;;;24.02;2.50;;;;;;;10.74;76.49;100234.09;8499050;27;20076;-80
2022/10/11 16:08:44;;;;;;;12.13;2.08;;;;;;;10.57;77.18;100229.91;8514486;27;20095;-80
2022/10/11 16:12:45;;;;;;;20.48;3.30;;;;;;;10.45;77.26;100221.34;8481348;27;20468;-80
2022/10/11 16:16:46;;;;;;;8.45;2.85;;;;;;;10.30;78.28;100231.44;8507106;27;20047;-80
2022/10/11 16:20:50;;;;;;;17.13;3.97;;;;;;;10.15;78.57;100232.31;8475859;27;20587;-80
2022/10/11 16:24:51;;;;;;;18.30;5.60;;;;;;;10.01;79.05;100242.09;8504787;27;20407;-81
2022/10/11 16:28:55;;;;;;;36.50;13.32;;;;;;;9.86;79.18;100240.28;8511077;27;20117;-80
2022/10/11 16:32:56;;;;;;;37.85;13.18;;;;;;;9.71;79.81;100243.84;8483006;27;20111;-80
2022/10/11 16:36:57;;;;;;;68.05;18.08;;;;;;;9.62;79.89;100242.00;8497429;27;20095;-82
2022/10/11 16:40:58;;;;;;;282.05;65.90;;;;;;;9.44;80.37;100243.38;8513841;27;20081;-80
2022/10/11 16:44:59;;;;;;;299.60;67.40;;;;;;;9.32;80.74;100246.38;8508559;27;20164;-81
2022/10/11 16:49:00;;;;;;;203.15;48.70;;;;;;;9.22;81.18;100250.97;8504518;27;20043;-80
2022/10/11 16:53:01;;;;;;;150.80;38.63;;;;;;;9.12;81.28;100245.59;8508550;27;20172;-80
2022/10/11 16:57:03;;;;;;;144.60;38.47;;;;;;;9.00;81.53;100255.81;8505584;27;20039;-81
2022/10/11 17:01:09;;;;;;;109.25;32.35;;;;;;;8.88;81.83;100256.91;8497246;27;20051;-81
2022/10/11 17:05:10;;;;;;;79.18;25.15;;;;;;;8.80;81.63;100254.75;8509669;27;20376;-81
2022/10/11 17:09:12;;;;;;;48.45;15.77;;;;;;;8.69;81.79;100266.59;8516189;27;20054;-80
2022/10/11 17:13:13;;;;;;;50.60;17.35;;;;;;;8.60;81.66;100264.72;8511266;27;20456;-81
2022/10/11 17:17:15;;;;;;;27.85;11.07;;;;;;;8.52;81.95;100274.09;8496098;27;20051;-80
2022/10/11 17:21:18;;;;;;;31.25;10.40;;;;;;;8.46;82.24;100280.56;8496525;27;20047;-81
2022/10/11 17:25:20;;;;;;;31.92;12.02;;;;;;;8.39;82.15;100280.00;8497172;27;20067;-80
2022/10/11 17:29:22;;;;;;;30.85;11.52;;;;;;;8.33;82.53;100286.47;8506761;27;20095;-80
2022/10/11 17:33:27;;;;;;;28.05;10.75;;;;;;;8.25;82.68;100285.03;8418568;28;20059;-80
2022/10/11 17:37:27;;;;;;;24.67;9.32;;;;;;;8.16;82.80;100285.81;8422224;28;20133;-80
2022/10/11 17:41:29;;;;;;;34.78;14.25;;;;;;;8.06;82.83;100287.41;8434665;28;20047;-80
2022/10/11 17:45:30;;;;;;;27.48;10.70;;;;;;;7.97;82.84;100283.63;8421410;28;20055;-81
2022/10/11 17:49:31;;;;;;;34.95;11.95;;;;;;;7.89;82.57;100286.78;8445272;28;20043;-80
2022/10/11 17:53:32;;;;;;;21.95;9.73;;;;;;;7.82;83.07;100285.44;8441077;28;20509;-80
2022/10/11 17:57:33;;;;;;;21.90;8.48;;;;;;;7.74;83.22;100278.66;8427022;28;20048;-81
2022/10/11 18:01:34;;;;;;;25.77;8.10;;;;;;;7.69;83.00;100275.94;8430185;28;20140;-81
2022/10/11 18:05:39;;;;;;;31.55;7.45;;;;;;;7.58;83.30;100279.66;8493162;27;20499;-81
2022/10/11 18:09:40;;;;;;;21.02;8.80;;;;;;;7.53;83.25;100282.31;8495820;27;20049;-81
2022/10/11 18:13:44;;;;;;;23.60;8.45;;;;;;;7.47;83.35;100283.34;8505826;27;20054;-81
2022/10/11 18:17:46;;;;;;;24.40;9.02;;;;;;;7.41;83.67;100284.38;8495267;27;20099;-81
2022/10/11 18:21:47;;;;;;;27.38;10.23;;;;;;;7.37;83.67;100283.28;8506681;27;20100;-80
2022/10/11 18:25:48;;;;;;;35.95;9.50;;;;;;;7.36;83.77;100287.03;8510148;27;20135;-80
2022/10/11 18:29:49;;;;;;;26.63;10.65;;;;;;;7.33;83.89;100287.56;8491762;27;20541;-79
2022/10/11 18:33:51;;;;;;;30.88;10.30;;;;;;;7.27;83.93;100277.84;8515417;27;20045;-80
2022/10/11 18:37:53;;;;;;;27.80;12.00;;;;;;;7.19;84.23;100277.25;8490179;27;20047;-81
2022/10/11 18:41:54;;;;;;;21.63;10.85;;;;;;;7.11;84.29;100280.41;8511671;27;20047;-80
2022/10/11 18:46:03;;;;;;;39.22;12.77;;;;;;;7.04;84.45;100281.69;8513049;27;20483;-80
2022/10/11 18:50:04;;;;;;;33.85;12.75;;;;;;;7.03;84.61;100288.94;8515679;27;20531;-80
2022/10/11 18:54:08;;;;;;;32.13;11.77;;;;;;;6.99;84.75;100277.09;8470532;27;20069;-80
2022/10/11 18:58:09;;;;;;;25.08;10.90;;;;;;;6.93;84.77;100283.47;8492009;27;20061;-81